^^
Grace C. Lehan Memorial Weather Station Historical Data
Daily Summary for February 22, 2021 Units:  Metric    English   Both
Daily Weekly Monthly Yearly
  High: Low: Average:
Temperature: 26.4 °C 17.9 °C 21.6 °C
Dew Point: 22.4 °C 16.4 °C 19.6 °C
Humidity: 94% 74.5% 89%
Wind Speed: 3.2km/h 0km/h 0.2km/h
Wind Gust: 17.7km/h - -
Wind- - South
Pressure: 1023.6 hPa 1015.8 hPa -
Precipitation: 0 mm    
 
 
Tabular Data for February 22, 2021
Time Temperature Dew Point Pressure Wind Wind Speed Wind Gust Humidity Rainfall Rate (Hourly) solar
00:00 17.9 °C 16.4 °C 1023.6 hPa Calm     91% 0 mm 0 W/m2
00:09 18.1 °C 16.6 °C 1023.6 hPa Calm     91% 0 mm 0 W/m2
00:14 18.1 °C 16.6 °C 1023.6 hPa Calm     91% 0 mm 0 W/m2
00:19 18.2 °C 16.7 °C 1023.6 hPa Calm     91% 0 mm 0 W/m2
00:24 18.2 °C 16.7 °C 1023.6 hPa Calm     91% 0 mm 0 W/m2
00:29 18.3 °C 16.8 °C 1023.6 hPa Calm     91% 0 mm 0 W/m2
00:34 18.3 °C 16.8 °C 1023.6 hPa Calm     91% 0 mm 0 W/m2
00:39 18.3 °C 16.8 °C 1023.6 hPa Calm     91% 0 mm 0 W/m2
00:44 18.3 °C 16.8 °C 1023.6 hPa Calm     90.7% 0 mm 0 W/m2
00:49 18.4 °C 16.7 °C 1023.2 hPa Calm     90% 0 mm 0 W/m2
00:54 18.4 °C 16.7 °C 1023.2 hPa Calm     90% 0 mm 0 W/m2
00:59 18.4 °C 16.7 °C 1023.2 hPa Calm     90% 0 mm 0 W/m2
01:04 18.4 °C 16.7 °C 1023.2 hPa Calm     90% 0 mm 0 W/m2
01:09 18.4 °C 16.8 °C 1023.2 hPa Calm     90% 0 mm 0 W/m2
01:14 18.4 °C 16.8 °C 1023.2 hPa Calm     90% 0 mm 0 W/m2
01:19 18.5 °C 16.8 °C 1023.2 hPa Calm     90% 0 mm 0 W/m2
01:24 18.6 °C 16.9 °C 1022.9 hPa Calm     90% 0 mm 0 W/m2
01:29 18.6 °C 16.9 °C 1022.9 hPa Calm     90% 0 mm 0 W/m2
01:34 18.6 °C 16.9 °C 1022.9 hPa Calm     90% 0 mm 0 W/m2
01:39 18.6 °C 16.9 °C 1022.9 hPa Calm     90% 0 mm 0 W/m2
01:44 18.6 °C 16.9 °C 1022.9 hPa Calm   1.6 km/h 90% 0 mm 0 W/m2
01:49 18.6 °C 16.9 °C 1022.6 hPa Calm   1.6 km/h 90% 0 mm 0 W/m2
01:54 18.7 °C 17 °C 1022.6 hPa Calm   1.6 km/h 90% 0 mm 0 W/m2
01:59 18.7 °C 17 °C 1022.6 hPa Calm   1.6 km/h 90% 0 mm 0 W/m2
02:04 18.7 °C 17 °C 1022.6 hPa Calm   1.6 km/h 90% 0 mm 0 W/m2
02:09 18.7 °C 17 °C 1022.6 hPa Calm     90% 0 mm 0 W/m2
02:14 18.7 °C 17.1 °C 1022.6 hPa Calm     90.7% 0 mm 0 W/m2
02:19 18.7 °C 17.2 °C 1022.6 hPa Calm     90.9% 0 mm 0 W/m2
02:24 18.6 °C 17.2 °C 1022.6 hPa Calm     91.2% 0 mm 0 W/m2
02:29 18.6 °C 17.2 °C 1022.6 hPa Calm     91.3% 0 mm 0 W/m2
02:34 18.6 °C 17.2 °C 1022.6 hPa Calm     91.3% 0 mm 0 W/m2
02:39 18.6 °C 17.1 °C 1022.2 hPa Calm     91% 0 mm 0 W/m2
02:44 18.6 °C 17.1 °C 1022.2 hPa Calm     91% 0 mm 0 W/m2
02:49 18.6 °C 17.1 °C 1022.2 hPa Calm     91% 0 mm 0 W/m2
02:54 18.6 °C 17.1 °C 1022.2 hPa Calm     91% 0 mm 0 W/m2
02:59 18.6 °C 17.1 °C 1022.2 hPa Calm     91% 0 mm 0 W/m2
03:04 18.6 °C 17.2 °C 1022.2 hPa Calm     91.1% 0 mm 0 W/m2
03:09 18.7 °C 17.3 °C 1022.2 hPa Calm     91.7% 0 mm 0 W/m2
03:14 18.7 °C 17.3 °C 1022.2 hPa Calm     92% 0 mm 0 W/m2
03:19 18.7 °C 17.3 °C 1021.9 hPa Calm     92% 0 mm 0 W/m2
03:24 18.7 °C 17.3 °C 1021.9 hPa Calm     92% 0 mm 0 W/m2
03:29 18.7 °C 17.3 °C 1021.9 hPa Calm     92% 0 mm 0 W/m2
03:34 18.7 °C 17.3 °C 1021.9 hPa Calm     92% 0 mm 0 W/m2
03:39 18.7 °C 17.3 °C 1021.9 hPa Calm     92% 0 mm 0 W/m2
03:44 18.7 °C 17.4 °C 1021.9 hPa Calm     92% 0 mm 0 W/m2
03:49 18.7 °C 17.4 °C 1021.9 hPa Calm     92% 0 mm 0 W/m2
03:54 18.7 °C 17.4 °C 1021.9 hPa Calm     92% 0 mm 0 W/m2
03:59 18.8 °C 17.4 °C 1021.9 hPa Calm     92% 0 mm 0 W/m2
04:09 18.8 °C 17.5 °C 1021.6 hPa Calm     92% 0 mm 0 W/m2
04:14 18.8 °C 17.5 °C 1021.6 hPa Calm     92% 0 mm 0 W/m2
04:19 18.8 °C 17.5 °C 1021.6 hPa Calm     92% 0 mm 0 W/m2
04:24 18.8 °C 17.5 °C 1021.6 hPa Calm     92% 0 mm 0 W/m2
04:29 18.8 °C 17.6 °C 1021.6 hPa Calm     92.7% 0 mm 0 W/m2
04:34 18.8 °C 17.7 °C 1021.6 hPa Calm     93% 0 mm 0 W/m2
04:39 18.8 °C 17.7 °C 1021.6 hPa Calm     93% 0 mm 0 W/m2
04:44 18.8 °C 17.7 °C 1021.6 hPa Calm     93% 0 mm 0 W/m2
04:49 18.8 °C 17.7 °C 1021.6 hPa Calm     93% 0 mm 0 W/m2
04:54 18.9 °C 17.7 °C 1021.6 hPa Calm     93% 0 mm 0 W/m2
04:59 18.9 °C 17.7 °C 1021.6 hPa Calm     93% 0 mm 0 W/m2
05:04 18.9 °C 17.7 °C 1021.2 hPa Calm     93% 0 mm 0 W/m2
05:09 18.9 °C 17.7 °C 1021.2 hPa Calm     93% 0 mm 0 W/m2
05:14 18.9 °C 17.8 °C 1021.2 hPa Calm     93% 0 mm 0 W/m2
05:19 18.9 °C 17.8 °C 1021.2 hPa Calm     93% 0 mm 0 W/m2
05:24 18.9 °C 17.8 °C 1021.2 hPa Calm     93% 0 mm 0 W/m2
05:29 18.9 °C 17.8 °C 1021.2 hPa Calm     93% 0 mm 0 W/m2
05:34 18.9 °C 17.8 °C 1021.2 hPa Calm     93% 0 mm 0 W/m2
05:39 18.9 °C 17.8 °C 1021.2 hPa Calm     93% 0 mm 0 W/m2
05:44 18.9 °C 17.8 °C 1020.9 hPa Calm     93% 0 mm 0 W/m2
05:49 18.9 °C 17.8 °C 1020.9 hPa Calm     93% 0 mm 0 W/m2
05:54 18.9 °C 17.8 °C 1020.9 hPa Calm     93% 0 mm 0 W/m2
05:59 18.9 °C 17.8 °C 1020.9 hPa Calm     93% 0 mm 0 W/m2
06:04 19 °C 17.8 °C 1020.9 hPa Calm     93% 0 mm 0 W/m2
06:09 19 °C 17.8 °C 1020.9 hPa Calm     93% 0 mm 0 W/m2
06:14 19 °C 17.8 °C 1020.9 hPa Calm     93% 0 mm 0 W/m2
06:19 19 °C 17.8 °C 1020.9 hPa Calm     93% 0 mm 0 W/m2
06:24 19 °C 17.8 °C 1020.9 hPa Calm     93% 0 mm 0 W/m2
06:29 19 °C 17.8 °C 1020.9 hPa Calm     93% 0 mm 0 W/m2
06:34 19 °C 17.8 °C 1020.9 hPa Calm     93% 0 mm 0 W/m2
06:39 19 °C 17.8 °C 1020.9 hPa ESE 0.2 km/h 3.2 km/h 93% 0 mm 0 W/m2
06:44 19 °C 17.8 °C 1020.9 hPa Calm   3.2 km/h 93% 0 mm 0 W/m2
06:49 19 °C 17.8 °C 1020.9 hPa Calm   3.2 km/h 93% 0 mm 0 W/m2
06:54 19 °C 17.9 °C 1020.9 hPa Calm   3.2 km/h 93% 0 mm 5 W/m2
06:59 19.1 °C 17.9 °C 1020.9 hPa Calm   3.2 km/h 93% 0 mm 5 W/m2
07:04 19.1 °C 17.9 °C 1020.9 hPa Calm   3.2 km/h 93% 0 mm 7 W/m2
07:09 19.1 °C 17.9 °C 1020.9 hPa Calm     93% 0 mm 9 W/m2
07:14 19.1 °C 17.9 °C 1020.9 hPa Calm     93% 0 mm 19 W/m2
07:19 19.1 °C 17.9 °C 1020.9 hPa Calm     93% 0 mm 19 W/m2
07:24 19.2 °C 18 °C 1020.9 hPa Calm     93% 0 mm 32 W/m2
07:29 19.2 °C 18 °C 1020.9 hPa Calm     93% 0 mm 37 W/m2
07:34 19.2 °C 18.2 °C 1020.5 hPa Calm     94% 0 mm 37 W/m2
07:39 19.3 °C 18.3 °C 1020.5 hPa Calm     94% 0 mm 33 W/m2
07:44 19.3 °C 18.3 °C 1020.5 hPa Calm     94% 0 mm 32 W/m2
07:49 19.4 °C 18.4 °C 1020.5 hPa Calm     94% 0 mm 28 W/m2
07:54 19.4 °C 18.5 °C 1020.5 hPa Calm     94% 0 mm 28 W/m2
07:59 19.6 °C 18.6 °C 1020.5 hPa Calm     94% 0 mm 37 W/m2
08:00 19.6 °C 18.6 °C 1020.5 hPa Calm     94% 0 mm 37 W/m2
08:09 19.7 °C 18.7 °C 1020.5 hPa Calm     94% 0 mm 62 W/m2
08:14 19.8 °C 18.8 °C 1020.5 hPa Calm     94% 0 mm 95 W/m2
08:19 19.8 °C 18.8 °C 1020.5 hPa Calm     94% 0 mm 83 W/m2
08:24 19.9 °C 18.9 °C 1020.5 hPa Calm     94% 0 mm 53 W/m2
08:29 20.1 °C 19.1 °C 1020.5 hPa Calm     94% 0 mm 81 W/m2
08:34 20.2 °C 19.2 °C 1020.5 hPa Calm     94% 0 mm 116 W/m2
08:39 20.4 °C 19.4 °C 1020.5 hPa Calm     94% 0 mm 209 W/m2
08:44 20.6 °C 19.6 °C 1020.5 hPa Calm     94% 0 mm 206 W/m2
08:49 20.9 °C 19.9 °C 1020.5 hPa Calm     94% 0 mm 206 W/m2
08:54 21.2 °C 20.1 °C 1020.2 hPa Calm     93.6% 0 mm 125 W/m2
08:59 21.4 °C 20.3 °C 1020.2 hPa Calm     93% 0 mm 125 W/m2
09:04 21.7 °C 20.4 °C 1020.2 hPa Calm     92.5% 0 mm 137 W/m2
09:09 21.9 °C 20.7 °C 1020.2 hPa ESE 0.2 km/h 3.2 km/h 92.2% 0 mm 158 W/m2
09:14 22.2 °C 20.8 °C 1020.2 hPa Calm   3.2 km/h 92% 0 mm 178 W/m2
09:19 22.4 °C 21.1 °C 1020.2 hPa Calm   3.2 km/h 91.8% 0 mm 156 W/m2
09:24 22.7 °C 21.1 °C 1020.2 hPa ESE 0.2 km/h 3.2 km/h 91% 0 mm 165 W/m2
09:29 22.8 °C 21.3 °C 1020.2 hPa ESE 0.2 km/h 3.2 km/h 90.9% 0 mm 165 W/m2
09:34 23.1 °C 21.3 °C 1020.2 hPa Calm   3.2 km/h 90.1% 0 mm 123 W/m2
09:39 23.2 °C 21.5 °C 1020.2 hPa Calm     90% 0 mm 251 W/m2
09:44 23.3 °C 21.6 °C 1020.2 hPa Calm   1.6 km/h 90% 0 mm 251 W/m2
09:49 23.5 °C 21.6 °C 1020.2 hPa ESE 0.3 km/h 8 km/h 89.2% 0 mm 260 W/m2
09:54 23.7 °C 21.8 °C 1019.9 hPa SSE 0.3 km/h 8 km/h 89% 0 mm 262 W/m2
09:59 23.9 °C 21.8 °C 1019.9 hPa Calm   8 km/h 88.2% 0 mm 304 W/m2
10:04 24.1 °C 22 °C 1019.9 hPa Calm   8 km/h 87.8% 0 mm 214 W/m2
10:09 24.3 °C 22.1 °C 1019.9 hPa Calm   1.6 km/h 87% 0 mm 425 W/m2
10:14 24.6 °C 22.1 °C 1019.9 hPa Calm   1.6 km/h 86.2% 0 mm 367 W/m2
10:16 24.7 °C 22.2 °C 1019.9 hPa South 0.6 km/h 3.2 km/h 86% 0 mm 278 W/m2
10:30 25 °C 22.1 °C 1019.9 hPa Calm   4.8 km/h 84% 0 mm 249 W/m2
11:00 25.6 °C 22.3 °C 1019.5 hPa SSW 1.6 km/h 9.7 km/h 82% 0 mm 283 W/m2
11:30 25.9 °C 22.4 °C 1019.2 hPa Calm   6.4 km/h 81% 0 mm 271 W/m2
12:04 25.7 °C 21.8 °C 1018.5 hPa Calm     79% 0 mm 223 W/m2
12:09 25.7 °C 21.7 °C 1018.5 hPa South 0.6 km/h 4.8 km/h 78.5% 0 mm 248 W/m2
12:14 25.7 °C 21.6 °C 1018.5 hPa South 0.8 km/h 8 km/h 78.4% 0 mm 287 W/m2
12:19 25.7 °C 21.8 °C 1018.5 hPa Calm   8 km/h 79% 0 mm 294 W/m2
12:24 25.9 °C 22 °C 1018.5 hPa SSW 0.2 km/h 8 km/h 79% 0 mm 380 W/m2
12:29 26.1 °C 22.2 °C 1018.5 hPa SSW 0.5 km/h 8 km/h 79% 0 mm 429 W/m2
12:34 26.3 °C 22.1 °C 1018.5 hPa SSW 0.5 km/h 8 km/h 77.8% 0 mm 355 W/m2
12:39 26.4 °C 22 °C 1018.2 hPa South 1.6 km/h 8 km/h 76.7% 0 mm 301 W/m2
12:44 26.4 °C 21.7 °C 1018.5 hPa SSW 1 km/h 8 km/h 75.4% 0 mm 292 W/m2
12:49 26.4 °C 21.6 °C 1018.2 hPa South 1.3 km/h 8 km/h 74.8% 0 mm 257 W/m2
12:54 26.3 °C 21.4 °C 1018.2 hPa SSW 1.3 km/h 11.3 km/h 74.5% 0 mm 237 W/m2
12:59 26.3 °C 21.4 °C 1018.2 hPa South 1 km/h 11.3 km/h 74.7% 0 mm 220 W/m2
13:04 26.2 °C 21.4 °C 1018.2 hPa Calm   11.3 km/h 75.2% 0 mm 200 W/m2
13:09 26 °C 21.8 °C 1018.2 hPa SSE 0.5 km/h 6.4 km/h 77.5% 0 mm 176 W/m2
13:14 25.7 °C 22.1 °C 1018.2 hPa Calm   6.4 km/h 80.3% 0 mm 181 W/m2
13:19 25.4 °C 22.2 °C 1018.2 hPa South 0.2 km/h 6.4 km/h 82.6% 0 mm 165 W/m2
13:24 25.2 °C 22.3 °C 1017.8 hPa Calm   6.4 km/h 84% 0 mm 149 W/m2
13:29 25 °C 22.3 °C 1017.8 hPa Calm   6.4 km/h 85.2% 0 mm 139 W/m2
13:34 24.9 °C 22.3 °C 1017.8 hPa Calm   6.4 km/h 85.7% 0 mm 118 W/m2
13:39 24.8 °C 22.3 °C 1017.8 hPa Calm     86% 0 mm 169 W/m2
13:44 24.8 °C 22.3 °C 1017.8 hPa SSE 0.2 km/h 3.2 km/h 86% 0 mm 251 W/m2
13:49 24.8 °C 22 °C 1017.5 hPa SSE 0.5 km/h 4.8 km/h 84.3% 0 mm 288 W/m2
13:54 25 °C 22.1 °C 1017.5 hPa Calm   4.8 km/h 84% 0 mm 265 W/m2
13:59 25.2 °C 22.2 °C 1017.5 hPa South 0.2 km/h 4.8 km/h 83.4% 0 mm 258 W/m2
14:04 25.3 °C 22 °C 1017.5 hPa SSE 0.2 km/h 4.8 km/h 81.8% 0 mm 183 W/m2
14:09 25.4 °C 21.7 °C 1017.5 hPa Calm   3.2 km/h 80.1% 0 mm 176 W/m2
14:14 25.4 °C 21.8 °C 1017.5 hPa SSE 0.2 km/h 3.2 km/h 80.2% 0 mm 178 W/m2
14:19 25.4 °C 21.7 °C 1017.2 hPa SSE 0.3 km/h 4.8 km/h 80% 0 mm 185 W/m2
14:24 25.4 °C 21.7 °C 1017.2 hPa Calm   4.8 km/h 80% 0 mm 146 W/m2
14:29 25.3 °C 21.7 °C 1017.2 hPa SSE 1 km/h 6.4 km/h 80% 0 mm 141 W/m2
14:34 25.3 °C 21.7 °C 1017.2 hPa South 2.3 km/h 14.5 km/h 80.7% 0 mm 156 W/m2
14:39 25.2 °C 21.7 °C 1017.2 hPa SSE 0.6 km/h 14.5 km/h 81% 0 mm 158 W/m2
14:44 25.2 °C 21.7 °C 1017.2 hPa South 0.2 km/h 14.5 km/h 81% 0 mm 171 W/m2
14:49 25.2 °C 21.7 °C 1016.8 hPa South 0.2 km/h 14.5 km/h 81% 0 mm 181 W/m2
14:54 25.2 °C 21.7 °C 1016.8 hPa South 0.5 km/h 14.5 km/h 81% 0 mm 223 W/m2
14:59 25.2 °C 21.6 °C 1016.8 hPa SSE 0.5 km/h 14.5 km/h 80.3% 0 mm 225 W/m2
15:04 25.2 °C 21.6 °C 1016.8 hPa South 0.6 km/h 14.5 km/h 80% 0 mm 213 W/m2
15:09 25.3 °C 21.6 °C 1016.8 hPa South 0.3 km/h 8 km/h 80.2% 0 mm 213 W/m2
15:14 25.3 °C 21.6 °C 1016.8 hPa South 0.5 km/h 8 km/h 80% 0 mm 338 W/m2
15:19 25.3 °C 21.7 °C 1016.8 hPa South 1.4 km/h 9.7 km/h 80% 0 mm 255 W/m2
15:24 25.4 °C 21.7 °C 1016.8 hPa South 1.6 km/h 14.5 km/h 80% 0 mm 255 W/m2
15:29 25.5 °C 21.4 °C 1016.8 hPa South 0.6 km/h 14.5 km/h 78.3% 0 mm 220 W/m2
15:34 25.6 °C 21.4 °C 1016.8 hPa South 3.2 km/h 17.7 km/h 78% 0 mm 292 W/m2
15:39 25.6 °C 21.4 °C 1016.5 hPa South 0.6 km/h 17.7 km/h 77.7% 0 mm 230 W/m2
15:44 25.6 °C 21.5 °C 1016.5 hPa South 0.6 km/h 17.7 km/h 78% 0 mm 146 W/m2
15:49 25.5 °C 21.5 °C 1016.5 hPa ESE 0.6 km/h 17.7 km/h 78.6% 0 mm 139 W/m2
15:54 25.4 °C 21.5 °C 1016.5 hPa South 1.3 km/h 17.7 km/h 79% 0 mm 171 W/m2
15:59 25.3 °C 21.6 °C 1016.5 hPa SSE 0.3 km/h 17.7 km/h 79.7% 0 mm 160 W/m2
16:09 25.3 °C 21.7 °C 1016.5 hPa Calm     80.5% 0 mm 132 W/m2
16:14 25.3 °C 21.8 °C 1016.5 hPa Calm   3.2 km/h 81% 0 mm 109 W/m2
16:19 25.3 °C 21.8 °C 1016.1 hPa South 0.3 km/h 4.8 km/h 80.6% 0 mm 148 W/m2
16:24 25.3 °C 21.7 °C 1016.1 hPa South 0.2 km/h 4.8 km/h 80.4% 0 mm 186 W/m2
16:29 25.4 °C 21.9 °C 1016.1 hPa SSW 0.5 km/h 8 km/h 81% 0 mm 185 W/m2
16:34 25.4 °C 21.8 °C 1016.1 hPa SSW 0.5 km/h 8 km/h 80.2% 0 mm 142 W/m2
16:39 25.4 °C 21.9 °C 1016.1 hPa Calm   6.4 km/h 80.6% 0 mm 146 W/m2
17:00 24.9 °C 22.1 °C 1015.8 hPa Calm   14.5 km/h 84% 0.51 mm 83 W/m2
17:30 24 °C 22.4 °C 1016.1 hPa Calm     91% 0.76 mm 37 W/m2
18:00 23.8 °C 22.1 °C 1015.8 hPa Calm   4.8 km/h 90% 0.76 mm 47 W/m2
18:30 23.6 °C 21.7 °C 1016.1 hPa Calm   11.3 km/h 89% 0.25 mm 9 W/m2
19:00 23.5 °C 21.8 °C 1015.8 hPa Calm     90% 0 mm 0 W/m2
19:30 22.9 °C 21.4 °C 1016.1 hPa Calm   4.8 km/h 91% 0.25 mm 0 W/m2
20:04 22.5 °C 21.3 °C 1016.1 hPa Calm     93% 0.25 mm 0 W/m2
20:09 22.5 °C 21.3 °C 1016.1 hPa Calm     93% 0.25 mm 0 W/m2
20:14 22.4 °C 21.3 °C 1016.1 hPa Calm     93% 0.25 mm 0 W/m2
20:19 22.4 °C 21.3 °C 1016.1 hPa Calm     93% 0.25 mm 0 W/m2
20:24 22.4 °C 21.2 °C 1016.1 hPa Calm     93% 0.25 mm 0 W/m2
20:29 22.4 °C 21.2 °C 1016.1 hPa Calm     93% 0.25 mm 0 W/m2
20:34 22.3 °C 21.2 °C 1016.1 hPa Calm     93.5% 0.25 mm 0 W/m2
20:39 22.3 °C 21.3 °C 1016.1 hPa Calm     94% 0 mm 0 W/m2
20:44 22.3 °C 21.3 °C 1016.1 hPa Calm     94% 0 mm 0 W/m2
20:49 22.3 °C 21.3 °C 1016.1 hPa Calm     94% 0 mm 0 W/m2
20:54 22.3 °C 21.3 °C 1016.1 hPa Calm     94% 0 mm 0 W/m2
20:59 22.3 °C 21.3 °C 1016.1 hPa Calm     94% 0 mm 0 W/m2
21:04 22.3 °C 21.3 °C 1016.5 hPa Calm     94% 0 mm 0 W/m2
21:09 22.3 °C 21.3 °C 1016.5 hPa Calm     94% 0 mm 0 W/m2
21:14 22.3 °C 21.3 °C 1016.5 hPa Calm     94% 0 mm 0 W/m2
21:16 22.3 °C 21.3 °C 1016.1 hPa Calm     94% 0 mm 0 W/m2
21:30 22.4 °C 21.4 °C 1016.5 hPa Calm     94% 0 mm 0 W/m2
22:00 22.3 °C 21.3 °C 1016.5 hPa Calm   8 km/h 94% 0 mm 0 W/m2
22:30 22.3 °C 21.3 °C 1016.5 hPa Calm   3.2 km/h 94% 0 mm 0 W/m2
23:00 22.3 °C 21.3 °C 1016.1 hPa Calm   3.2 km/h 94% 0 mm 0 W/m2
23:30 22.3 °C 21.3 °C 1016.5 hPa Calm   1.6 km/h 94% 0 mm 0 W/m2
Hartford County Weather
Compliments of Weather Underground - 4 mb